Time;durP1;ratioP1;P1;durP2;ratioP2;P2;SDS_P1;SDS_P2;PMS_P1;PMS_P2;Temp;Humidity;BMP_temperature;BMP_pressure;BME280_temperature;BME280_humidity;BME280_pressure;Samples;Min_cycle;Max_cycle;Signal;HPM_P1;HPM_P2
2023/05/21 00:01:00;;;;;;;11.30;10.07;;;;;;;11.60;100.00;95622.63;5104420;28;20027;-73
2023/05/21 00:03:27;;;;;;;10.95;8.85;;;;;;;11.57;100.00;95617.66;5101125;28;20040;-73
2023/05/21 00:05:53;;;;;;;9.25;8.05;;;;;;;11.58;100.00;95614.88;5111674;28;20043;-73
2023/05/21 00:08:19;;;;;;;8.63;7.70;;;;;;;11.60;100.00;95612.06;5095623;28;20032;-73
2023/05/21 00:10:45;;;;;;;9.57;8.70;;;;;;;11.60;100.00;95612.06;5119998;27;20032;-73
2023/05/21 00:13:10;;;;;;;10.02;9.00;;;;;;;11.60;100.00;95610.28;5099464;28;20028;-73
2023/05/21 00:15:36;;;;;;;9.57;8.68;;;;;;;11.61;100.00;95608.50;5102486;28;20438;-73
2023/05/21 00:18:02;;;;;;;9.88;9.05;;;;;;;11.60;100.00;95604.16;5097544;28;20097;-74
2023/05/21 00:20:30;;;;;;;9.57;8.63;;;;;;;11.58;100.00;95601.69;5094663;28;20028;-72
2023/05/21 00:22:57;;;;;;;10.68;9.57;;;;;;;11.58;100.00;95598.22;5106927;28;20023;-74
2023/05/21 00:25:22;;;;;;;9.80;8.93;;;;;;;11.59;100.00;95606.00;5098838;28;20229;-73
2023/05/21 00:27:48;;;;;;;9.40;8.63;;;;;;;11.60;100.00;95596.25;5102661;28;20083;-73
2023/05/21 00:30:14;;;;;;;10.77;9.80;;;;;;;11.61;100.00;95597.94;5111359;28;20027;-73
2023/05/21 00:32:39;;;;;;;11.35;10.35;;;;;;;11.61;100.00;95597.94;5105922;28;20164;-73
2023/05/21 00:35:05;;;;;;;10.10;9.23;;;;;;;11.60;100.00;95596.25;5095289;28;20056;-72
2023/05/21 00:37:32;;;;;;;13.40;9.57;;;;;;;11.61;100.00;95592.66;5104501;27;20052;-73
2023/05/21 00:39:58;;;;;;;11.48;10.50;;;;;;;11.60;100.00;95585.72;5108750;27;20476;-73
2023/05/21 00:42:26;;;;;;;10.23;9.32;;;;;;;11.60;100.00;95589.19;5106953;27;20065;-73
2023/05/21 00:44:53;;;;;;;10.38;9.30;;;;;;;11.59;100.00;95589.31;5110296;27;20472;-73
2023/05/21 00:47:20;;;;;;;9.63;8.82;;;;;;;11.58;100.00;95590.31;5107142;27;20085;-73
2023/05/21 00:49:47;;;;;;;12.82;9.00;;;;;;;11.56;100.00;95579.09;5109852;27;20106;-73
2023/05/21 00:52:13;;;;;;;9.00;8.13;;;;;;;11.56;100.00;95574.66;5103567;28;20438;-73
2023/05/21 00:54:40;;;;;;;10.40;9.32;;;;;;;11.56;100.00;95573.81;5102705;28;20035;-72
2023/05/21 00:57:05;;;;;;;8.95;8.35;;;;;;;11.56;100.00;95571.19;5103631;27;20088;-73
2023/05/21 00:59:32;;;;;;;8.98;8.23;;;;;;;11.55;100.00;95566.88;5110779;28;20472;-73
2023/05/21 01:02:02;;;;;;;8.95;8.25;;;;;;;11.53;100.00;95564.41;5102858;28;20388;-73
2023/05/21 01:04:28;;;;;;;10.60;9.27;;;;;;;11.50;100.00;95558.59;5107924;28;20502;-73
2023/05/21 01:06:55;;;;;;;9.80;8.85;;;;;;;11.49;100.00;95562.22;5113855;27;20076;-73
2023/05/21 01:09:21;;;;;;;9.52;8.73;;;;;;;11.46;100.00;95558.91;5105977;27;20028;-73
2023/05/21 01:11:48;;;;;;;9.90;8.80;;;;;;;11.43;100.00;95556.59;5106305;28;20028;-73
2023/05/21 01:14:15;;;;;;;10.80;9.80;;;;;;;11.46;100.00;95552.78;5116763;27;20053;-73
2023/05/21 01:16:45;;;;;;;10.10;9.00;;;;;;;11.49;100.00;95555.13;5098647;28;20026;-73
2023/05/21 01:19:14;;;;;;;10.30;9.30;;;;;;;11.49;100.00;95556.94;5103469;28;20501;-73
2023/05/21 01:21:43;;;;;;;10.13;9.38;;;;;;;11.50;100.00;95548.91;5107499;27;20032;-73
2023/05/21 01:24:09;;;;;;;16.88;9.40;;;;;;;11.54;100.00;95562.59;5103158;27;20028;-73
2023/05/21 01:26:37;;;;;;;9.23;8.27;;;;;;;11.52;100.00;95554.00;5099532;27;20499;-73
2023/05/21 01:29:05;;;;;;;9.57;8.63;;;;;;;11.50;100.00;95553.34;5107212;28;20020;-73
2023/05/21 01:31:40;;;;;;;9.85;9.05;;;;;;;11.49;100.00;95556.94;5099831;28;20473;-73
2023/05/21 01:34:10;;;;;;;9.32;8.52;;;;;;;11.49;100.00;95563.03;5110185;27;20023;-73
2023/05/21 01:36:42;;;;;;;9.77;8.98;;;;;;;11.51;100.00;95560.25;5115815;27;20093;-73
2023/05/21 01:39:28;;;;;;;11.50;8.88;;;;;;;11.46;100.00;95558.91;5086875;28;20078;-73
2023/05/21 01:41:56;;;;;;;9.90;8.98;;;;;;;11.43;100.00;95555.75;5082513;28;20040;-73
2023/05/21 01:44:25;;;;;;;9.75;8.70;;;;;;;11.41;100.00;95550.63;5108594;27;20081;-73
2023/05/21 01:46:53;;;;;;;10.48;9.52;;;;;;;11.38;100.00;95547.47;5106422;27;20031;-73
2023/05/21 01:49:20;;;;;;;10.63;9.48;;;;;;;11.37;100.00;95554.53;5098457;28;20016;-73
2023/05/21 01:51:47;;;;;;;11.00;9.88;;;;;;;11.39;100.00;95547.31;5104266;28;20079;-73
2023/05/21 01:54:13;;;;;;;9.75;8.88;;;;;;;11.40;100.00;95546.34;5103522;28;20487;-73
2023/05/21 01:56:38;;;;;;;9.65;8.85;;;;;;;11.39;100.00;95549.97;5100662;28;20028;-73
2023/05/21 01:59:04;;;;;;;9.43;8.73;;;;;;;11.39;100.00;95554.38;5113553;27;20024;-73
2023/05/21 02:01:30;;;;;;;10.50;9.50;;;;;;;11.37;100.00;95548.44;5108269;28;20019;-72
2023/05/21 02:03:56;;;;;;;9.60;8.90;;;;;;;11.35;100.00;95551.22;5119679;27;20024;-73
2023/05/21 02:06:22;;;;;;;10.20;9.30;;;;;;;11.34;100.00;95544.28;5116189;27;20028;-73
2023/05/21 02:08:48;;;;;;;10.55;9.30;;;;;;;11.33;100.00;95547.91;5107061;28;20015;-73
2023/05/21 02:11:13;;;;;;;10.20;9.20;;;;;;;11.33;100.00;95561.09;5099488;28;20480;-72
2023/05/21 02:13:39;;;;;;;9.93;9.00;;;;;;;11.36;100.00;95565.22;5105693;27;20579;-73
2023/05/21 02:16:08;;;;;;;9.45;8.45;;;;;;;11.38;100.00;95555.38;5111727;28;20480;-73
2023/05/21 02:18:35;;;;;;;9.93;8.95;;;;;;;11.39;100.00;95552.59;5106807;27;20046;-73
2023/05/21 02:21:00;;;;;;;9.27;8.48;;;;;;;11.39;100.00;95552.59;5101074;28;20077;-72
2023/05/21 02:23:26;;;;;;;12.80;9.07;;;;;;;11.39;100.00;95547.31;5101213;28;20028;-73
2023/05/21 02:25:51;;;;;;;11.05;9.68;;;;;;;11.39;100.00;95549.97;5101927;28;20016;-72
2023/05/21 02:28:16;;;;;;;11.23;9.90;;;;;;;11.38;100.00;95550.91;5101596;28;20299;-73
2023/05/21 02:30:42;;;;;;;10.57;9.77;;;;;;;11.38;100.00;95555.38;5101405;28;20023;-74
2023/05/21 02:33:07;;;;;;;10.07;9.18;;;;;;;11.39;100.00;95557.88;5096446;28;20107;-73
2023/05/21 02:35:33;;;;;;;10.52;9.55;;;;;;;11.38;100.00;95552.72;5099608;27;20020;-72
2023/05/21 02:38:01;;;;;;;11.95;9.57;;;;;;;11.41;100.00;95552.44;5108186;27;20089;-72
2023/05/21 02:40:27;;;;;;;10.38;9.18;;;;;;;11.37;100.00;95546.63;5099151;28;20027;-73
2023/05/21 02:42:52;;;;;;;9.73;9.02;;;;;;;11.38;100.00;95552.72;5102721;27;20372;-73
2023/05/21 02:45:17;;;;;;;11.55;9.30;;;;;;;11.34;100.00;95559.28;5101884;27;20024;-73
2023/05/21 02:47:43;;;;;;;9.80;8.93;;;;;;;11.32;100.00;95551.53;5109101;27;20063;-73
2023/05/21 02:50:08;;;;;;;9.63;8.70;;;;;;;11.34;100.00;95549.56;5103016;28;20027;-73
2023/05/21 02:52:34;;;;;;;9.77;8.93;;;;;;;11.33;100.00;95547.91;5101984;28;20027;-73
2023/05/21 02:54:59;;;;;;;9.88;8.93;;;;;;;11.30;100.00;95548.22;5101414;28;20077;-73
2023/05/21 02:57:25;;;;;;;12.13;9.82;;;;;;;11.25;100.00;95556.56;5101074;28;20020;-73
2023/05/21 02:59:50;;;;;;;10.82;9.80;;;;;;;11.23;100.00;95555.88;5119526;27;20027;-74
2023/05/21 03:02:16;;;;;;;10.90;9.90;;;;;;;11.20;100.00;95558.81;5098884;28;20020;-73
2023/05/21 03:04:45;;;;;;;11.80;10.80;;;;;;;11.18;100.00;95556.34;5110729;28;20023;-74
2023/05/21 03:07:12;;;;;;;10.63;9.73;;;;;;;11.17;100.00;95559.97;5103451;28;20488;-73
2023/05/21 03:09:39;;;;;;;13.38;9.93;;;;;;;11.15;100.00;95555.81;5103201;28;20041;-73
2023/05/21 03:12:05;;;;;;;10.68;9.77;;;;;;;11.13;100.00;95553.31;5110314;28;20023;-73
2023/05/21 03:14:31;;;;;;;11.30;10.32;;;;;;;11.10;100.00;95558.88;5108781;28;20023;-73
2023/05/21 03:16:57;;;;;;;11.95;9.35;;;;;;;11.09;100.00;95559.03;5103872;28;20023;-74
2023/05/21 03:19:23;;;;;;;10.38;9.48;;;;;;;11.08;100.00;95555.56;5095836;28;20051;-73
2023/05/21 03:21:49;;;;;;;10.20;9.20;;;;;;;11.03;100.00;95552.56;5102201;28;20045;-73
2023/05/21 03:24:15;;;;;;;9.35;8.65;;;;;;;11.03;100.00;95560.44;5108426;27;20498;-73
2023/05/21 03:26:40;;;;;;;10.27;9.48;;;;;;;10.99;100.00;95553.81;5104162;28;20023;-73
2023/05/21 03:29:05;;;;;;;10.38;9.32;;;;;;;10.98;100.00;95554.81;5104120;27;20013;-73
2023/05/21 03:31:31;;;;;;;10.10;9.20;;;;;;;10.95;100.00;95560.38;5104450;28;20020;-73
2023/05/21 03:33:56;;;;;;;9.73;9.00;;;;;;;10.93;100.00;95570.19;5104839;28;20023;-73
2023/05/21 03:36:22;;;;;;;10.60;9.52;;;;;;;10.94;100.00;95564.78;5101060;28;20081;-73
2023/05/21 03:38:47;;;;;;;10.88;9.88;;;;;;;10.96;100.00;95554.94;5117538;27;20040;-73
2023/05/21 03:41:13;;;;;;;11.32;10.00;;;;;;;10.97;100.00;95556.59;5093338;28;20020;-73
2023/05/21 03:43:38;;;;;;;11.23;10.27;;;;;;;10.97;100.00;95563.69;5107887;28;20016;-73
2023/05/21 03:46:04;;;;;;;10.77;9.70;;;;;;;10.95;100.00;95566.44;5101240;28;20111;-73
2023/05/21 03:48:29;;;;;;;10.52;9.73;;;;;;;10.97;100.00;95567.13;5103725;28;20039;-73
2023/05/21 03:50:55;;;;;;;11.07;10.18;;;;;;;10.96;100.00;95567.28;5106302;28;20036;-73
2023/05/21 03:53:21;;;;;;;11.02;9.90;;;;;;;10.93;100.00;95568.41;5104057;28;20038;-73
2023/05/21 03:55:53;;;;;;;11.20;10.30;;;;;;;10.91;100.00;95569.53;5110873;28;20019;-73
2023/05/21 03:58:21;;;;;;;10.63;9.82;;;;;;;10.91;100.00;95574.78;5106954;28;20538;-73
2023/05/21 04:00:47;;;;;;;10.18;9.20;;;;;;;10.92;100.00;95568.53;5101927;28;20074;-73
2023/05/21 04:03:13;;;;;;;10.35;9.50;;;;;;;10.92;100.00;95572.03;5100184;28;20020;-73
2023/05/21 04:05:40;;;;;;;16.38;10.40;;;;;;;10.88;100.00;95566.22;5096149;28;20103;-73
2023/05/21 04:08:06;;;;;;;9.88;9.07;;;;;;;10.86;100.00;95577.88;5102853;28;20051;-73
2023/05/21 04:10:31;;;;;;;10.40;9.43;;;;;;;10.85;100.00;95576.22;5108169;28;20500;-73
2023/05/21 04:12:56;;;;;;;10.93;9.80;;;;;;;10.84;100.00;95574.56;5107762;28;20043;-73
2023/05/21 04:15:23;;;;;;;10.02;9.23;;;;;;;10.83;100.00;95578.16;5115930;27;20027;-73
2023/05/21 04:17:49;;;;;;;9.60;8.93;;;;;;;10.84;100.00;95579.84;5099860;27;20028;-73
2023/05/21 04:20:15;;;;;;;10.27;9.45;;;;;;;10.84;100.00;95590.38;5104403;28;20123;-73
2023/05/21 04:22:41;;;;;;;10.82;9.82;;;;;;;10.79;100.00;95580.28;5107472;28;20031;-73
2023/05/21 04:25:07;;;;;;;10.82;9.93;;;;;;;10.77;100.00;95582.22;5109220;27;20019;-73
2023/05/21 04:27:33;;;;;;;11.13;9.98;;;;;;;10.74;100.00;95583.31;5107326;28;20030;-73
2023/05/21 04:29:58;;;;;;;10.32;9.30;;;;;;;10.75;100.00;95569.19;5116091;27;20467;-73
2023/05/21 04:32:24;;;;;;;9.77;8.98;;;;;;;10.75;100.00;95576.28;5103043;27;20016;-73
2023/05/21 04:34:49;;;;;;;10.77;9.70;;;;;;;10.72;100.00;95569.47;5106844;28;20111;-73
2023/05/21 04:37:18;;;;;;;11.20;9.95;;;;;;;10.69;100.00;95574.19;5107584;28;20073;-73
2023/05/21 04:39:45;;;;;;;11.07;10.02;;;;;;;10.69;100.00;95575.03;5099851;27;20024;-73
2023/05/21 04:42:11;;;;;;;9.57;8.88;;;;;;;10.71;100.00;95578.34;5106621;28;20089;-73
2023/05/21 04:44:39;;;;;;;10.43;9.45;;;;;;;10.73;100.00;95572.97;5112439;27;20036;-73
2023/05/21 04:47:04;;;;;;;10.20;9.40;;;;;;;10.73;100.00;95572.97;5113319;27;20452;-73
2023/05/21 04:49:30;;;;;;;11.75;10.57;;;;;;;10.74;100.00;95579.88;5111665;28;20093;-73
2023/05/21 04:51:55;;;;;;;10.45;9.45;;;;;;;10.74;100.00;95574.63;5099497;28;20028;-73
2023/05/21 04:54:21;;;;;;;11.27;10.27;;;;;;;10.74;100.00;95566.72;5109263;27;20076;-73
2023/05/21 04:56:47;;;;;;;11.25;10.25;;;;;;;10.77;100.00;95573.47;5109922;28;20072;-73
2023/05/21 04:59:13;;;;;;;11.07;9.98;;;;;;;10.74;100.00;95574.63;5113628;28;20062;-73
2023/05/21 05:01:38;;;;;;;10.43;9.63;;;;;;;10.73;100.00;95567.69;5114666;28;20094;-73
2023/05/21 05:04:04;;;;;;;10.38;9.57;;;;;;;10.73;100.00;95580.84;5081720;28;20024;-73
2023/05/21 05:06:30;;;;;;;9.75;8.90;;;;;;;10.77;100.00;95571.69;5107454;28;20535;-73
2023/05/21 05:08:56;;;;;;;10.05;9.35;;;;;;;10.80;100.00;95581.09;5116629;27;20020;-73
2023/05/21 05:11:21;;;;;;;10.13;9.27;;;;;;;10.83;100.00;95576.34;5109703;28;20464;-73
2023/05/21 05:13:46;;;;;;;10.38;9.45;;;;;;;10.85;100.00;95571.78;5106066;28;20062;-73
2023/05/21 05:16:13;;;;;;;10.07;9.23;;;;;;;10.84;100.00;95575.38;5110298;27;20096;-73
2023/05/21 05:18:38;;;;;;;10.35;9.55;;;;;;;10.83;100.00;95571.09;5113055;28;20027;-73
2023/05/21 05:21:04;;;;;;;10.70;8.80;;;;;;;10.87;100.00;95569.81;5106748;28;20381;-73
2023/05/21 05:23:29;;;;;;;9.93;9.07;;;;;;;10.86;100.00;95576.06;5098056;28;20028;-73
2023/05/21 05:25:55;;;;;;;9.52;8.73;;;;;;;10.86;100.00;95568.16;5116897;28;20036;-73
2023/05/21 05:28:20;;;;;;;11.30;10.40;;;;;;;10.88;100.00;95575.94;5102256;28;20403;-73
2023/05/21 05:30:46;;;;;;;10.98;10.07;;;;;;;10.91;100.00;95578.28;5110013;28;20054;-73
2023/05/21 05:33:12;;;;;;;11.48;10.50;;;;;;;10.96;100.00;95577.84;5105401;28;20023;-73
2023/05/21 05:35:37;;;;;;;13.68;11.30;;;;;;;10.97;100.00;95574.22;5102998;27;20119;-73
2023/05/21 05:38:03;;;;;;;10.75;9.60;;;;;;;10.99;100.00;95572.28;5120525;27;20048;-73
2023/05/21 05:40:28;;;;;;;10.05;9.25;;;;;;;10.97;100.00;95575.03;5111478;28;20434;-73
2023/05/21 05:42:54;;;;;;;11.00;10.00;;;;;;;10.96;100.00;95577.84;5115966;27;20007;-73
2023/05/21 05:45:19;;;;;;;10.25;9.35;;;;;;;10.93;100.00;95573.69;5102672;27;20111;-73
2023/05/21 05:47:45;;;;;;;10.48;9.57;;;;;;;10.88;100.00;95578.56;5113367;27;20020;-73
2023/05/21 05:50:11;;;;;;;9.75;8.75;;;;;;;10.86;100.00;95576.06;5103249;28;20081;-73
2023/05/21 05:52:36;;;;;;;10.02;9.32;;;;;;;10.88;100.00;95581.19;5108770;28;20026;-73
2023/05/21 05:55:02;;;;;;;10.35;9.48;;;;;;;10.86;100.00;95577.88;5106538;28;20016;-73
2023/05/21 05:57:28;;;;;;;12.13;9.00;;;;;;;10.83;100.00;95573.72;5103514;28;20023;-73
2023/05/21 05:59:53;;;;;;;9.98;8.82;;;;;;;-147.26;100.00;60209.22;5104707;28;20483;-73
2023/05/21 06:02:19;;;;;;;10.20;8.98;;;;;;;-147.26;100.00;60209.22;5094329;28;20071;-73
2023/05/21 06:04:44;;;;;;;10.15;9.27;;;;;;;-147.26;100.00;60209.22;5098625;27;20034;-73
2023/05/21 06:07:10;;;;;;;10.00;9.30;;;;;;;-147.26;100.00;60209.22;5106633;28;20109;-73
2023/05/21 06:09:37;;;;;;;10.52;9.55;;;;;;;-147.26;100.00;60209.22;5105671;28;20022;-73
2023/05/21 06:12:04;;;;;;;11.43;9.38;;;;;;;-147.26;100.00;60209.22;5103195;27;20124;-73
2023/05/21 06:14:29;;;;;;;10.50;9.48;;;;;;;-147.26;100.00;60209.22;5104178;27;20047;-73
2023/05/21 06:16:55;;;;;;;9.75;8.73;;;;;;;-147.26;100.00;60209.22;5107555;28;20112;-73
2023/05/21 06:19:20;;;;;;;10.90;9.90;;;;;;;-147.26;100.00;60209.22;5103993;28;20795;-73
2023/05/21 06:21:46;;;;;;;12.80;9.95;;;;;;;-147.26;100.00;60209.22;5104810;28;20511;-73
2023/05/21 06:24:11;;;;;;;10.00;9.20;;;;;;;-147.26;100.00;60209.22;5103774;28;20161;-73
2023/05/21 06:26:36;;;;;;;9.95;9.05;;;;;;;-147.26;100.00;60209.22;5113963;27;20130;-73
2023/05/21 06:29:02;;;;;;;9.93;9.13;;;;;;;-147.26;100.00;60209.22;5103999;28;20069;-73
2023/05/21 06:31:28;;;;;;;10.50;9.60;;;;;;;-147.26;100.00;60209.22;5106864;27;20024;-74
2023/05/21 06:33:53;;;;;;;9.82;8.93;;;;;;;-147.26;100.00;60209.22;5101060;28;20453;-73
2023/05/21 06:36:19;;;;;;;9.73;8.93;;;;;;;-147.26;100.00;60209.22;5105267;28;20088;-73
2023/05/21 06:38:44;;;;;;;9.05;8.25;;;;;;;-147.26;100.00;60209.22;5107880;28;20046;-73
2023/05/21 06:41:10;;;;;;;9.45;8.82;;;;;;;-147.26;100.00;60209.22;5091013;28;20070;-73
2023/05/21 06:43:35;;;;;;;10.40;9.40;;;;;;;-147.26;100.00;60209.22;5104037;27;20016;-75
2023/05/21 06:46:00;;;;;;;9.70;8.80;;;;;;;-147.26;100.00;60209.22;5107675;27;20062;-73
2023/05/21 06:48:26;;;;;;;9.38;8.55;;;;;;;-147.26;100.00;60209.22;5116188;27;20066;-73
2023/05/21 06:50:51;;;;;;;9.70;8.93;;;;;;;-147.26;100.00;60209.22;5100253;27;20472;-74
2023/05/21 06:53:17;;;;;;;9.23;8.52;;;;;;;-147.26;100.00;60209.22;5109065;28;20561;-75
2023/05/21 06:55:43;;;;;;;9.45;8.52;;;;;;;-147.26;100.00;60209.22;5100284;28;20020;-74
2023/05/21 06:58:12;;;;;;;9.05;8.18;;;;;;;-147.26;100.00;60209.22;5100581;28;20034;-74
2023/05/21 07:00:37;;;;;;;8.50;7.88;;;;;;;-147.26;100.00;60209.22;5104042;28;20073;-74
2023/05/21 07:03:03;;;;;;;8.52;7.82;;;;;;;-147.26;100.00;60209.22;5101324;28;20024;-76
2023/05/21 07:05:28;;;;;;;7.97;7.28;;;;;;;-147.26;100.00;60209.22;5097589;28;20052;-76
2023/05/21 07:07:54;;;;;;;8.70;7.90;;;;;;;-147.26;100.00;60209.22;5102424;28;20480;-76
2023/05/21 07:10:19;;;;;;;8.63;7.70;;;;;;;-147.26;100.00;60209.22;5108080;28;20019;-74
2023/05/21 07:12:45;;;;;;;8.38;7.68;;;;;;;-147.26;100.00;60209.22;5100465;28;20028;-73
2023/05/21 07:15:10;;;;;;;8.95;7.57;;;;;;;-147.26;100.00;60209.22;5106288;28;20032;-74
2023/05/21 07:17:36;;;;;;;8.23;7.47;;;;;;;-147.26;100.00;60209.22;5110366;27;20020;-74
2023/05/21 07:20:05;;;;;;;8.48;7.80;;;;;;;-147.26;100.00;60209.22;5104093;27;20073;-74
2023/05/21 07:22:30;;;;;;;8.75;7.95;;;;;;;-147.26;100.00;60209.22;5109057;27;20031;-74
2023/05/21 07:24:56;;;;;;;8.20;7.60;;;;;;;-147.26;100.00;60209.22;5103426;28;20031;-74
2023/05/21 07:27:25;;;;;;;8.43;7.75;;;;;;;-147.26;100.00;60209.22;5100528;28;20386;-74
2023/05/21 07:29:50;;;;;;;9.07;8.32;;;;;;;-147.26;100.00;60209.22;5103067;28;20016;-74
2023/05/21 07:32:16;;;;;;;8.82;8.02;;;;;;;-147.26;100.00;60209.22;5103527;28;20027;-74
2023/05/21 07:34:41;;;;;;;10.10;9.10;;;;;;;-147.26;100.00;60209.22;5108451;28;20047;-74
2023/05/21 07:37:06;;;;;;;9.30;8.50;;;;;;;-147.26;100.00;60209.22;5103932;28;20044;-74
2023/05/21 07:39:32;;;;;;;8.85;8.15;;;;;;;-147.26;100.00;60209.22;5106391;28;20024;-74
2023/05/21 07:42:00;;;;;;;10.27;9.35;;;;;;;-147.26;100.00;60209.22;5107122;28;20028;-75
2023/05/21 07:44:25;;;;;;;9.68;8.90;;;;;;;-147.26;100.00;60209.22;5099525;28;20020;-74
2023/05/21 07:46:51;;;;;;;10.50;9.48;;;;;;;-147.26;100.00;60209.22;5108536;28;20023;-75
2023/05/21 07:49:16;;;;;;;9.80;8.80;;;;;;;-147.26;100.00;60209.22;5105605;28;20012;-75
2023/05/21 07:51:43;;;;;;;10.15;8.70;;;;;;;-147.26;100.00;60209.22;5110118;28;20496;-74
2023/05/21 07:54:08;;;;;;;11.65;10.55;;;;;;;-147.26;100.00;60209.22;5105803;28;20016;-75
2023/05/21 07:56:34;;;;;;;12.40;9.65;;;;;;;-147.26;100.00;60209.22;5085066;28;20037;-74
2023/05/21 07:59:00;;;;;;;13.30;10.30;;;;;;;-147.26;100.00;60209.22;5102921;28;20024;-74
2023/05/21 08:01:28;;;;;;;12.68;11.50;;;;;;;-147.26;100.00;60209.22;5099404;28;20035;-76
2023/05/21 08:03:54;;;;;;;12.75;11.70;;;;;;;-147.26;100.00;60209.22;5119883;28;20038;-73
2023/05/21 08:06:21;;;;;;;10.57;9.68;;;;;;;-147.26;100.00;60209.22;5100689;28;20408;-73
2023/05/21 08:08:46;;;;;;;10.65;9.75;;;;;;;-147.26;100.00;60209.22;5083545;28;20012;-73
2023/05/21 08:11:12;;;;;;;8.60;7.88;;;;;;;-147.26;100.00;60209.22;5109964;28;20468;-73
2023/05/21 08:13:37;;;;;;;8.57;7.97;;;;;;;-147.26;100.00;60209.22;5116430;28;20029;-75
2023/05/21 08:16:04;;;;;;;10.80;8.30;;;;;;;-147.26;100.00;60209.22;5113563;28;20027;-73
2023/05/21 08:18:29;;;;;;;9.25;8.40;;;;;;;-147.26;100.00;60209.22;5100584;28;20020;-73
2023/05/21 08:20:55;;;;;;;8.95;8.15;;;;;;;-147.26;100.00;60209.22;5095986;28;20030;-73
2023/05/21 08:23:20;;;;;;;8.75;8.05;;;;;;;-147.26;100.00;60209.22;5106102;28;20093;-73
2023/05/21 08:25:46;;;;;;;9.63;8.55;;;;;;;-147.26;100.00;60209.22;5105435;28;20024;-73
2023/05/21 08:28:14;;;;;;;8.80;7.93;;;;;;;-147.26;100.00;60209.22;5114613;28;20466;-74
2023/05/21 08:30:40;;;;;;;9.40;8.70;;;;;;;-147.26;100.00;60209.22;5111732;28;20011;-73
2023/05/21 08:33:05;;;;;;;9.32;8.43;;;;;;;-147.26;100.00;60209.22;5093446;28;20161;-73
2023/05/21 08:35:31;;;;;;;10.40;8.25;;;;;;;-147.26;100.00;60209.22;5095963;28;20027;-73
2023/05/21 08:37:56;;;;;;;8.80;8.18;;;;;;;-147.26;100.00;60209.22;5120752;27;20048;-73
2023/05/21 08:40:22;;;;;;;9.35;8.50;;;;;;;-147.26;100.00;60209.22;5099449;28;20035;-73
2023/05/21 08:42:49;;;;;;;9.32;8.07;;;;;;;-147.26;100.00;60209.22;5094587;28;20082;-73
2023/05/21 08:45:19;;;;;;;8.32;7.72;;;;;;;-147.26;100.00;60209.22;5099036;28;20235;-73
2023/05/21 08:47:48;;;;;;;9.25;8.45;;;;;;;-147.26;100.00;60209.22;5107484;28;20468;-73
2023/05/21 08:50:18;;;;;;;9.57;8.63;;;;;;;-147.26;100.00;60209.22;5103455;28;20069;-74
2023/05/21 08:52:43;;;;;;;9.90;8.85;;;;;;;-147.26;100.00;60209.22;5092339;28;20031;-74
2023/05/21 08:55:09;;;;;;;9.70;8.40;;;;;;;-147.26;100.00;60209.22;5100830;28;20016;-74
2023/05/21 08:57:36;;;;;;;9.32;8.50;;;;;;;-147.26;100.00;60209.22;5104337;28;20020;-73
2023/05/21 09:00:04;;;;;;;7.55;6.95;;;;;;;-147.26;100.00;60209.22;5103485;28;20028;-73
2023/05/21 09:02:33;;;;;;;11.35;8.27;;;;;;;-147.26;100.00;60209.22;5109804;28;20024;-73
2023/05/21 09:05:02;;;;;;;44.70;24.38;;;;;;;-147.26;100.00;60209.22;5112742;28;20025;-75
2023/05/21 09:07:28;;;;;;;12.63;11.35;;;;;;;-147.26;100.00;60209.22;5108205;28;20525;-74
2023/05/21 09:10:03;;;;;;;49.13;25.23;;;;;;;-147.26;100.00;60209.22;5110549;28;20025;-74
2023/05/21 09:12:30;;;;;;;22.23;14.30;;;;;;;-147.26;100.00;60209.22;5101287;28;20015;-73
2023/05/21 09:14:57;;;;;;;8.25;7.55;;;;;;;-147.26;100.00;60209.22;5101211;27;20468;-76
2023/05/21 09:17:23;;;;;;;30.98;16.48;;;;;;;-147.26;100.00;60209.22;5100402;27;20034;-75
2023/05/21 09:20:12;;;;;;;11.10;9.68;;;;;;;-147.26;100.00;60209.22;5100921;27;20492;-74
2023/05/21 09:22:46;;;;;;;9.20;8.50;;;;;;;-147.26;100.00;60209.22;5104482;28;20028;-73
2023/05/21 09:25:17;;;;;;;12.13;11.07;;;;;;;-147.26;100.00;60209.22;5102109;28;20028;-75
2023/05/21 09:27:43;;;;;;;9.50;8.60;;;;;;;-147.26;100.00;60209.22;5105682;27;20049;-75
2023/05/21 09:30:13;;;;;;;9.60;8.63;;;;;;;-147.26;100.00;60209.22;5095439;28;20050;-75
2023/05/21 09:32:40;;;;;;;10.25;9.18;;;;;;;-147.26;100.00;60209.22;5097276;27;20047;-75
2023/05/21 09:35:24;;;;;;;11.43;10.35;;;;;;;-147.26;100.00;60209.22;5097935;28;20020;-75
2023/05/21 09:37:51;;;;;;;10.95;9.73;;;;;;;-147.26;100.00;60209.22;5098902;27;20043;-75
2023/05/21 09:40:18;;;;;;;12.98;10.80;;;;;;;-147.26;100.00;60209.22;5111823;28;20027;-75
2023/05/21 09:42:52;;;;;;;11.50;10.40;;;;;;;-147.26;100.00;60209.22;5110202;27;20548;-75
2023/05/21 09:45:18;;;;;;;12.05;10.95;;;;;;;-147.26;100.00;60209.22;5104780;28;20043;-76
2023/05/21 09:47:45;;;;;;;14.18;11.65;;;;;;;-147.26;100.00;60209.22;5113573;27;20015;-75
2023/05/21 09:50:11;;;;;;;12.60;11.38;;;;;;;-147.26;100.00;60209.22;5109770;27;20020;-76
2023/05/21 09:52:38;;;;;;;11.63;10.55;;;;;;;-147.26;100.00;60209.22;5108574;28;20015;-75
2023/05/21 09:55:11;;;;;;;12.60;11.55;;;;;;;-147.26;100.00;60209.22;5115560;28;20472;-76
2023/05/21 09:57:44;;;;;;;11.43;10.52;;;;;;;-147.26;100.00;60209.22;5100601;27;20027;-76
2023/05/21 10:00:27;;;;;;;11.85;10.77;;;;;;;-147.26;100.00;60209.22;5111176;27;20051;-76
2023/05/21 10:02:57;;;;;;;12.07;10.50;;;;;;;-147.26;100.00;60209.22;5106134;27;20020;-76
2023/05/21 10:05:27;;;;;;;11.70;10.60;;;;;;;-147.26;100.00;60209.22;5101384;28;20100;-75
2023/05/21 10:08:03;;;;;;;11.30;10.30;;;;;;;-147.26;100.00;60209.22;5104675;28;20024;-75
2023/05/21 10:10:30;;;;;;;12.60;11.02;;;;;;;-147.26;100.00;60209.22;5105173;27;20131;-76
2023/05/21 10:13:07;;;;;;;11.85;10.82;;;;;;;-147.26;100.00;60209.22;5104680;28;20102;-76
2023/05/21 10:15:44;;;;;;;11.57;10.45;;;;;;;-147.26;100.00;60209.22;5107156;28;20105;-75
2023/05/21 10:18:12;;;;;;;11.05;10.13;;;;;;;-147.26;100.00;60209.22;5113215;28;20039;-76
2023/05/21 10:20:38;;;;;;;11.40;10.00;;;;;;;-147.26;100.00;60209.22;5107350;28;20395;-75
2023/05/21 10:23:04;;;;;;;11.50;10.50;;;;;;;-147.26;100.00;60209.22;5099958;28;20027;-75
2023/05/21 10:25:33;;;;;;;14.55;13.25;;;;;;;-147.26;100.00;60209.22;5118980;27;20022;-76
2023/05/21 10:27:59;;;;;;;12.20;10.73;;;;;;;-147.26;100.00;60209.22;5105121;28;20517;-76
2023/05/21 10:30:24;;;;;;;13.07;11.80;;;;;;;-147.26;100.00;60209.22;5107300;28;20032;-75
2023/05/21 10:32:50;;;;;;;11.50;10.40;;;;;;;-147.26;100.00;60209.22;5110560;27;20027;-76
2023/05/21 10:35:16;;;;;;;12.73;11.60;;;;;;;-147.26;100.00;60209.22;5112552;28;20031;-76
2023/05/21 10:37:45;;;;;;;13.55;12.18;;;;;;;-147.26;100.00;60209.22;5103391;27;20081;-74
2023/05/21 10:40:12;;;;;;;12.93;11.93;;;;;;;-147.26;100.00;60209.22;5095747;28;20047;-75
2023/05/21 10:42:55;;;;;;;12.00;11.00;;;;;;;-147.26;100.00;60209.22;5104752;28;20058;-74
2023/05/21 10:45:34;;;;;;;13.32;12.15;;;;;;;-147.26;100.00;60209.22;5111960;28;20047;-75
2023/05/21 10:48:21;;;;;;;13.10;11.90;;;;;;;-147.26;100.00;60209.22;5104554;28;20030;-75
2023/05/21 10:51:08;;;;;;;13.55;12.10;;;;;;;-147.26;100.00;60209.22;5112123;27;20500;-77
2023/05/21 10:54:10;;;;;;;13.57;12.18;;;;;;;-147.26;100.00;60209.22;5104119;28;20019;-75
2023/05/21 10:56:42;;;;;;;14.05;12.77;;;;;;;-147.26;100.00;60209.22;5104840;28;20388;-75
2023/05/21 10:59:26;;;;;;;15.32;13.80;;;;;;;-147.26;100.00;60209.22;5108853;28;20073;-74
2023/05/21 11:01:52;;;;;;;11.75;10.85;;;;;;;-147.26;100.00;60209.22;5112604;28;20023;-73
2023/05/21 11:04:24;;;;;;;12.52;11.32;;;;;;;-147.26;100.00;60209.22;5107431;27;20023;-73
2023/05/21 11:06:50;;;;;;;14.90;13.63;;;;;;;-147.26;100.00;60209.22;5122211;27;20026;-73
2023/05/21 11:09:15;;;;;;;11.70;10.52;;;;;;;-147.26;100.00;60209.22;5114596;27;20106;-72
2023/05/21 11:11:42;;;;;;;10.90;9.90;;;;;;;-147.26;100.00;60209.22;5101038;28;20031;-73